createdAt,value
2023-06-19T00:01:55.733Z,13.13
2023-06-19T00:05:18.194Z,13.13
2023-06-19T00:08:46.771Z,13.12
2023-06-19T00:12:06.540Z,13.09
2023-06-19T00:15:25.503Z,13.08
2023-06-19T00:18:54.321Z,13.06
2023-06-19T00:22:23.067Z,13.06
2023-06-19T00:25:52.329Z,13.05
2023-06-19T00:29:21.157Z,13.03
2023-06-19T00:32:50.118Z,13.01
2023-06-19T00:36:11.486Z,13.01
2023-06-19T00:39:43.050Z,12.99
2023-06-19T00:43:12.191Z,12.96
2023-06-19T00:46:33.942Z,12.94
2023-06-19T00:50:03.087Z,12.91
2023-06-19T00:53:25.582Z,12.89
2023-06-19T00:56:53.687Z,12.85
2023-06-19T01:00:23.086Z,12.79
2023-06-19T01:03:52.528Z,12.74
2023-06-19T01:07:24.693Z,12.70
2023-06-19T01:10:50.431Z,12.67
2023-06-19T01:13:59.382Z,12.65
2023-06-19T01:17:28.986Z,12.60
2023-06-19T01:20:58.197Z,12.58
2023-06-19T01:24:27.338Z,12.57
2023-06-19T01:27:55.981Z,12.56
2023-06-19T01:31:25.080Z,12.56
2023-06-19T01:34:47.793Z,12.55
2023-06-19T01:38:17.221Z,12.51
2023-06-19T01:41:46.350Z,12.48
2023-06-19T01:45:15.464Z,12.46
2023-06-19T01:48:45.062Z,12.42
2023-06-19T01:52:08.772Z,12.39
2023-06-19T01:55:38.122Z,12.39
2023-06-19T01:59:00.302Z,12.37
2023-06-19T02:02:29.370Z,12.35
2023-06-19T02:05:58.560Z,12.33
2023-06-19T02:09:27.416Z,12.32
2023-06-19T02:12:56.468Z,12.29
2023-06-19T02:16:27.218Z,12.28
2023-06-19T02:19:39.106Z,12.27
2023-06-19T02:23:08.573Z,12.28
2023-06-19T02:26:37.783Z,12.26
2023-06-19T02:30:06.784Z,12.24
2023-06-19T02:33:28.468Z,12.23
2023-06-19T02:36:57.414Z,12.22
2023-06-19T02:40:26.787Z,12.24
2023-06-19T02:43:45.751Z,12.27
2023-06-19T02:47:15.417Z,12.30
2023-06-19T02:50:45.944Z,12.33
2023-06-19T02:54:15.144Z,12.34
2023-06-19T02:57:44.463Z,12.36
2023-06-19T03:01:13.634Z,12.37
2023-06-19T03:04:23.696Z,12.37
2023-06-19T03:07:53.738Z,12.36
2023-06-19T03:11:23.370Z,12.37
2023-06-19T03:14:48.885Z,12.39
2023-06-19T03:18:17.499Z,12.41
2023-06-19T03:21:46.397Z,12.44
2023-06-19T03:25:15.155Z,12.47
2023-06-19T03:28:43.907Z,12.54
2023-06-19T03:32:06.580Z,12.59
2023-06-19T03:35:35.751Z,12.63
2023-06-19T03:39:03.568Z,12.67
2023-06-19T03:42:32.355Z,12.72
2023-06-19T03:46:01.386Z,12.70
2023-06-19T03:49:32.691Z,12.69
2023-06-19T03:53:01.921Z,12.72
2023-06-19T03:56:24.869Z,12.74
2023-06-19T03:59:44.141Z,12.77
2023-06-19T04:03:03.290Z,12.79
2023-06-19T04:06:32.617Z,12.84
2023-06-19T04:10:01.940Z,12.86
2023-06-19T04:13:30.765Z,12.88
2023-06-19T04:16:59.838Z,12.87
2023-06-19T04:20:33.246Z,12.81
2023-06-19T04:23:54.665Z,12.82
2023-06-19T04:27:23.622Z,12.81
2023-06-19T04:30:52.876Z,12.83
2023-06-19T04:34:22.234Z,12.85
2023-06-19T04:37:51.531Z,12.84
2023-06-19T04:41:20.797Z,12.82
2023-06-19T04:44:49.941Z,12.80
2023-06-19T04:48:20.141Z,12.75
2023-06-19T04:51:38.963Z,12.70
2023-06-19T04:55:00.950Z,12.65
2023-06-19T04:58:29.700Z,12.63
2023-06-19T05:01:58.578Z,12.60
2023-06-19T05:05:16.429Z,12.57
2023-06-19T05:08:45.307Z,12.57
2023-06-19T05:12:14.091Z,12.53
2023-06-19T05:15:43.124Z,12.47
2023-06-19T05:19:12.000Z,12.42
2023-06-19T05:22:46.743Z,12.38
2023-06-19T05:26:16.553Z,12.32
2023-06-19T05:29:45.354Z,12.28
2023-06-19T05:33:15.073Z,12.23
2023-06-19T05:36:42.612Z,12.19
2023-06-19T05:40:12.876Z,12.15
2023-06-19T05:43:42.011Z,12.12
2023-06-19T05:47:11.221Z,12.09
2023-06-19T05:50:23.719Z,12.06
2023-06-19T05:53:42.189Z,12.02
2023-06-19T05:57:03.507Z,12.00
2023-06-19T06:00:35.168Z,11.95
2023-06-19T06:03:57.545Z,11.89
2023-06-19T06:07:26.840Z,11.84
2023-06-19T06:10:46.700Z,11.78
2023-06-19T06:14:16.047Z,11.71
2023-06-19T06:17:45.136Z,11.65
2023-06-19T06:21:06.646Z,11.62
2023-06-19T06:24:28.136Z,11.61
2023-06-19T06:27:57.372Z,11.61
2023-06-19T06:31:26.716Z,11.61
2023-06-19T06:34:55.888Z,11.59
2023-06-19T06:38:25.100Z,11.56
2023-06-19T06:41:54.235Z,11.54
2023-06-19T06:45:24.989Z,11.50
2023-06-19T06:48:54.676Z,11.46
2023-06-19T06:52:14.775Z,11.44
2023-06-19T06:55:46.453Z,11.42
2023-06-19T06:59:15.205Z,11.36
2023-06-19T07:02:44.096Z,11.32
2023-06-19T07:06:12.983Z,11.27
2023-06-19T07:09:50.260Z,11.18
2023-06-19T07:13:19.025Z,11.13
2023-06-19T07:16:40.959Z,11.11
2023-06-19T07:20:11.128Z,11.08
2023-06-19T07:23:40.026Z,11.00
2023-06-19T07:27:09.612Z,10.93
2023-06-19T07:30:31.004Z,10.88
2023-06-19T07:33:59.958Z,10.89
2023-06-19T07:37:28.934Z,10.91
2023-06-19T07:40:58.171Z,10.92
2023-06-19T07:44:15.546Z,10.94
2023-06-19T07:47:43.317Z,10.97
2023-06-19T07:51:12.310Z,11.00
2023-06-19T07:54:40.984Z,11.03
2023-06-19T07:58:10.098Z,11.08
2023-06-19T08:01:39.261Z,11.12
2023-06-19T08:04:56.433Z,11.16
2023-06-19T08:08:26.981Z,11.17
2023-06-19T08:11:56.074Z,11.14
2023-06-19T08:15:25.139Z,11.12
2023-06-19T08:18:54.246Z,11.12
2023-06-19T08:22:23.649Z,11.12
2023-06-19T08:25:46.016Z,11.16
2023-06-19T08:29:15.529Z,11.20
2023-06-19T08:32:44.208Z,11.23
2023-06-19T08:36:12.393Z,11.26
2023-06-19T08:39:41.838Z,11.30
2023-06-19T08:43:03.465Z,11.33
2023-06-19T08:46:25.070Z,11.37
2023-06-19T08:49:44.374Z,11.39
2023-06-19T08:53:06.215Z,11.43
2023-06-19T08:56:35.461Z,11.46
2023-06-19T09:00:10.747Z,11.45
2023-06-19T09:03:43.468Z,11.45
2023-06-19T09:07:12.916Z,11.44
2023-06-19T09:10:41.658Z,11.42
2023-06-19T09:14:11.018Z,11.40
2023-06-19T09:17:41.540Z,11.37
2023-06-19T09:21:09.056Z,11.33
2023-06-19T09:24:38.219Z,11.29
2023-06-19T09:28:10.237Z,11.23
2023-06-19T09:31:39.092Z,11.16
2023-06-19T09:35:08.572Z,11.09
2023-06-19T09:38:37.850Z,11.04
2023-06-19T09:42:06.129Z,10.99
2023-06-19T09:45:35.284Z,10.95
2023-06-19T09:49:04.581Z,10.90
2023-06-19T09:52:36.553Z,10.86
2023-06-19T09:56:05.988Z,10.81
2023-06-19T09:59:35.268Z,10.78
2023-06-19T10:02:57.200Z,10.72
2023-06-19T10:06:34.985Z,10.71
2023-06-19T10:10:10.294Z,10.70
2023-06-19T10:13:28.571Z,10.68
2023-06-19T10:16:57.056Z,10.67
2023-06-19T10:20:27.110Z,10.69
2023-06-19T10:23:58.253Z,10.70
2023-06-19T10:27:17.388Z,10.69
2023-06-19T10:30:46.319Z,10.67
2023-06-19T10:34:15.281Z,10.66
2023-06-19T10:37:44.586Z,10.62
2023-06-19T10:41:12.348Z,10.58
2023-06-19T10:44:42.463Z,10.50
2023-06-19T10:48:12.074Z,10.44
2023-06-19T10:51:42.162Z,10.41
2023-06-19T10:55:04.792Z,10.37
2023-06-19T10:58:34.075Z,10.32
2023-06-19T11:02:03.629Z,10.27
2023-06-19T11:05:25.970Z,10.22
2023-06-19T11:08:54.735Z,10.17
2023-06-19T11:12:26.678Z,10.14
2023-06-19T11:15:56.492Z,10.11
2023-06-19T11:19:26.529Z,10.07
2023-06-19T11:22:46.776Z,9.98
2023-06-19T11:26:13.982Z,9.93
2023-06-19T11:29:36.988Z,9.92
2023-06-19T11:33:14.813Z,9.91
2023-06-19T11:36:30.201Z,9.87
2023-06-19T11:39:59.426Z,9.83
2023-06-19T11:43:28.653Z,9.85
2023-06-19T11:46:57.899Z,9.85
2023-06-19T11:50:21.861Z,9.85
2023-06-19T11:53:37.305Z,9.86
2023-06-19T11:57:06.380Z,9.89
2023-06-19T12:00:35.917Z,9.92
2023-06-19T12:04:05.160Z,9.95
2023-06-19T12:07:34.223Z,9.90
2023-06-19T12:10:58.945Z,9.91
2023-06-19T12:14:28.417Z,9.96
2023-06-19T12:17:38.253Z,9.94
2023-06-19T12:21:00.167Z,9.92
2023-06-19T12:24:29.306Z,9.91
2023-06-19T12:27:41.432Z,9.95
2023-06-19T12:31:03.164Z,10.01
2023-06-19T12:34:29.468Z,10.08
2023-06-19T12:37:59.940Z,10.11
2023-06-19T12:41:28.944Z,10.13
2023-06-19T12:44:58.194Z,10.13
2023-06-19T12:48:29.196Z,10.15
2023-06-19T12:51:58.165Z,10.18
2023-06-19T12:55:28.092Z,10.22
2023-06-19T12:58:56.918Z,10.25
2023-06-19T13:02:25.877Z,10.27
2023-06-19T13:05:55.286Z,10.29
2023-06-19T13:09:23.971Z,10.31
2023-06-19T13:12:45.721Z,10.32
2023-06-19T13:16:15.281Z,10.32
2023-06-19T13:19:45.325Z,10.33
2023-06-19T13:23:14.610Z,10.32
2023-06-19T13:26:43.801Z,10.30
2023-06-19T13:30:11.502Z,10.30
2023-06-19T13:33:23.921Z,10.31
2023-06-19T13:36:25.842Z,10.32
2023-06-19T13:39:55.965Z,10.32
2023-06-19T13:43:16.932Z,10.31
2023-06-19T13:46:44.520Z,10.29
2023-06-19T13:50:15.197Z,10.28
2023-06-19T13:53:35.048Z,10.30
2023-06-19T13:56:49.928Z,10.32
2023-06-19T14:00:19.130Z,10.31
2023-06-19T14:03:40.659Z,10.32
2023-06-19T14:07:09.845Z,10.34
2023-06-19T14:10:38.958Z,10.35
2023-06-19T14:14:07.721Z,10.35
2023-06-19T14:17:36.562Z,10.37
2023-06-19T14:21:04.539Z,10.37
2023-06-19T14:24:33.692Z,10.38
2023-06-19T14:27:43.382Z,10.36
2023-06-19T14:31:11.915Z,10.37
2023-06-19T14:34:29.404Z,10.38
2023-06-19T14:37:58.622Z,10.40
2023-06-19T14:41:27.934Z,10.44
2023-06-19T14:44:57.071Z,10.49
2023-06-19T14:48:26.598Z,10.53
2023-06-19T14:51:56.730Z,10.57
2023-06-19T14:55:26.097Z,10.60
2023-06-19T14:58:54.920Z,10.63
2023-06-19T15:02:12.438Z,10.68
2023-06-19T15:05:28.541Z,10.71
2023-06-19T15:08:37.158Z,10.76
2023-06-19T15:12:06.375Z,10.80
2023-06-19T15:15:35.109Z,10.83
2023-06-19T15:18:54.928Z,10.87
2023-06-19T15:22:23.654Z,10.90
2023-06-19T15:25:52.710Z,10.94
2023-06-19T15:29:12.022Z,10.99
2023-06-19T15:32:41.123Z,11.01
2023-06-19T15:36:10.433Z,11.02
2023-06-19T15:39:39.620Z,11.05
2023-06-19T15:42:48.811Z,11.07
2023-06-19T15:46:18.963Z,11.10
2023-06-19T15:49:48.043Z,11.13
2023-06-19T15:53:10.387Z,11.18
2023-06-19T15:56:39.478Z,11.20
2023-06-19T16:00:08.593Z,11.25
2023-06-19T16:03:37.967Z,11.32
2023-06-19T16:07:07.042Z,11.38
2023-06-19T16:10:35.819Z,11.43
2023-06-19T16:14:04.912Z,11.45
2023-06-19T16:17:34.520Z,11.47
2023-06-19T16:21:03.612Z,11.51
2023-06-19T16:24:32.865Z,11.55
2023-06-19T16:28:02.467Z,11.53
2023-06-19T16:31:24.874Z,11.48
2023-06-19T16:34:53.895Z,11.46
2023-06-19T16:38:24.170Z,11.45
2023-06-19T16:41:53.268Z,11.43
2023-06-19T16:45:13.137Z,11.47
2023-06-19T16:48:27.760Z,11.57
2023-06-19T16:51:31.984Z,11.66
2023-06-19T16:55:01.642Z,11.72
2023-06-19T16:58:30.887Z,11.78
2023-06-19T17:01:50.312Z,11.89
2023-06-19T17:05:19.040Z,11.99
2023-06-19T17:08:48.328Z,12.11
2023-06-19T17:12:17.326Z,12.23
2023-06-19T17:15:46.439Z,12.33
2023-06-19T17:19:15.869Z,12.42
2023-06-19T17:22:45.140Z,12.52
2023-06-19T17:26:03.152Z,12.60
2023-06-19T17:29:32.114Z,12.66
2023-06-19T17:33:01.493Z,12.72
2023-06-19T17:36:31.369Z,12.78
2023-06-19T17:39:50.332Z,12.85
2023-06-19T17:43:19.150Z,12.92
2023-06-19T17:46:40.515Z,12.97
2023-06-19T17:50:10.345Z,13.03
2023-06-19T17:53:28.540Z,13.08
2023-06-19T17:56:57.573Z,13.11
2023-06-19T18:00:27.182Z,13.16
2023-06-19T18:03:50.090Z,13.21
2023-06-19T18:07:19.163Z,13.21
2023-06-19T18:10:48.081Z,13.24
2023-06-19T18:14:16.994Z,13.28
2023-06-19T18:17:47.302Z,13.33
2023-06-19T18:21:16.441Z,13.35
2023-06-19T18:24:45.565Z,13.33
2023-06-19T18:28:14.634Z,13.33
2023-06-19T18:31:43.957Z,13.33
2023-06-19T18:35:13.038Z,13.32
2023-06-19T18:38:41.760Z,13.30
2023-06-19T18:42:03.209Z,13.32
2023-06-19T18:45:32.395Z,13.32
2023-06-19T18:49:03.088Z,13.33
2023-06-19T18:52:24.463Z,13.26
2023-06-19T18:55:53.580Z,13.19
2023-06-19T18:59:22.268Z,13.13
2023-06-19T19:02:51.124Z,13.08
2023-06-19T19:06:21.112Z,12.97
2023-06-19T19:09:49.910Z,12.93
2023-06-19T19:13:12.010Z,12.89
2023-06-19T19:16:41.167Z,12.81
2023-06-19T19:20:10.032Z,12.70
2023-06-19T19:23:38.946Z,12.62
2023-06-19T19:27:08.032Z,12.60
2023-06-19T19:30:36.933Z,12.60
2023-06-19T19:34:05.843Z,12.62
2023-06-19T19:37:34.764Z,12.70
2023-06-19T19:41:03.566Z,12.82
2023-06-19T19:44:32.556Z,12.98
2023-06-19T19:48:01.511Z,13.14
2023-06-19T19:51:30.270Z,13.28
2023-06-19T19:54:59.096Z,13.39
2023-06-19T19:58:21.224Z,13.46
2023-06-19T20:01:50.028Z,13.54
2023-06-19T20:05:18.813Z,13.64
2023-06-19T20:08:29.937Z,13.72
2023-06-19T20:12:05.927Z,13.78
2023-06-19T20:15:48.027Z,13.83
2023-06-19T20:19:17.562Z,13.86
2023-06-19T20:22:46.385Z,13.86
2023-06-19T20:26:15.138Z,13.82
2023-06-19T20:29:43.842Z,13.75
2023-06-19T20:32:55.177Z,13.73
2023-06-19T20:36:23.955Z,13.72
2023-06-19T20:39:52.145Z,13.74
2023-06-19T20:43:21.639Z,13.76
2023-06-19T20:46:50.375Z,13.82
2023-06-19T20:50:18.329Z,13.89
2023-06-19T20:53:47.054Z,13.91
2023-06-19T20:57:16.488Z,13.93
2023-06-19T21:00:21.896Z,13.93
2023-06-19T21:03:40.912Z,13.94
2023-06-19T21:07:09.655Z,13.96
2023-06-19T21:10:39.037Z,13.97
2023-06-19T21:14:07.882Z,13.98
2023-06-19T21:17:36.875Z,14.00
2023-06-19T21:21:05.654Z,14.02
2023-06-19T21:24:34.804Z,14.05
2023-06-19T21:28:03.848Z,14.09
2023-06-19T21:31:21.450Z,14.12
2023-06-19T21:34:50.498Z,14.14
2023-06-19T21:38:19.412Z,14.18
2023-06-19T21:41:33.660Z,14.18
2023-06-19T21:45:01.455Z,14.20
2023-06-19T21:48:30.295Z,14.25
2023-06-19T21:51:51.739Z,14.32
2023-06-19T21:55:19.325Z,14.38
2023-06-19T21:58:40.758Z,14.45
2023-06-19T22:02:09.512Z,14.53
2023-06-19T22:05:38.276Z,14.58
2023-06-19T22:09:07.061Z,14.62
2023-06-19T22:12:36.179Z,14.66
2023-06-19T22:16:05.400Z,14.70
2023-06-19T22:19:36.001Z,14.74
2023-06-19T22:23:04.958Z,14.78
2023-06-19T22:26:34.138Z,14.80
2023-06-19T22:30:02.911Z,14.83
2023-06-19T22:33:18.197Z,14.85
2023-06-19T22:36:47.492Z,14.86
2023-06-19T22:40:12.964Z,14.89
2023-06-19T22:43:41.668Z,14.94
2023-06-19T22:47:11.328Z,14.99
2023-06-19T22:50:33.597Z,15.03
2023-06-19T22:54:03.189Z,15.04
2023-06-19T22:57:32.525Z,15.06
2023-06-19T23:01:01.543Z,15.07
2023-06-19T23:04:31.028Z,15.08
2023-06-19T23:07:59.920Z,15.07
2023-06-19T23:11:24.873Z,15.07
2023-06-19T23:14:46.328Z,15.08
2023-06-19T23:18:08.594Z,15.08
2023-06-19T23:21:37.355Z,15.08
2023-06-19T23:24:56.488Z,15.08
2023-06-19T23:28:23.938Z,15.07
2023-06-19T23:31:53.263Z,15.05
2023-06-19T23:35:13.871Z,15.01
2023-06-19T23:38:42.666Z,14.95
2023-06-19T23:42:11.342Z,14.90
2023-06-19T23:45:40.081Z,14.87
2023-06-19T23:49:09.892Z,14.85
2023-06-19T23:52:44.315Z,14.82
2023-06-19T23:56:05.208Z,14.77
2023-06-19T23:59:34.527Z,14.74
